Time;durP1;ratioP1;P1;durP2;ratioP2;P2;SDS_P1;SDS_P2;PMS_P1;PMS_P2;Temp;Humidity;BMP_temperature;BMP_pressure;BME280_temperature;BME280_humidity;BME280_pressure;Samples;Min_cycle;Max_cycle;Signal;HPM_P1;HPM_P2
2021/03/19 00:02:15;;;;;;;45.10;23.23;;;;;;;6.46;52.20;99683.66;5050429;28;20052;-65
2021/03/19 00:04:41;;;;;;;44.90;22.98;;;;;;;6.42;51.68;99677.00;5045681;28;20017;-65
2021/03/19 00:07:06;;;;;;;52.67;23.95;;;;;;;6.36;52.39;99673.13;5045990;28;20021;-65
2021/03/19 00:09:32;;;;;;;44.30;23.58;;;;;;;6.37;52.50;99679.19;5045463;28;20060;-65
2021/03/19 00:11:58;;;;;;;49.80;25.30;;;;;;;6.19;52.64;99676.38;5045186;28;20266;-71
2021/03/19 00:14:23;;;;;;;59.33;26.73;;;;;;;6.02;53.53;99671.78;5047505;28;20028;-73
2021/03/19 00:16:49;;;;;;;55.22;26.50;;;;;;;5.90;53.35;99678.94;5041649;28;20096;-68
2021/03/19 00:19:17;;;;;;;56.55;27.17;;;;;;;5.78;54.21;99686.06;5047316;28;20029;-73
2021/03/19 00:21:43;;;;;;;60.45;27.40;;;;;;;5.83;54.19;99688.28;5044665;28;20211;-71
2021/03/19 00:24:08;;;;;;;54.60;26.50;;;;;;;6.04;53.82;99680.38;5049475;28;20021;-65
2021/03/19 00:26:34;;;;;;;57.13;27.02;;;;;;;5.93;54.06;99668.16;5044120;28;20026;-73
2021/03/19 00:29:00;;;;;;;60.00;26.90;;;;;;;5.85;53.75;99665.34;5044034;28;20033;-71
2021/03/19 00:31:25;;;;;;;59.50;26.40;;;;;;;5.88;53.73;99669.50;5044005;28;20041;-71
2021/03/19 00:33:51;;;;;;;47.72;24.88;;;;;;;5.94;53.71;99659.31;5046710;28;20048;-72
2021/03/19 00:36:16;;;;;;;53.17;24.98;;;;;;;5.78;52.65;99653.69;5044516;28;20220;-72
2021/03/19 00:38:42;;;;;;;61.20;32.05;;;;;;;5.71;53.28;99666.53;5047564;28;20075;-71
2021/03/19 00:41:07;;;;;;;48.83;23.95;;;;;;;5.36;54.57;99672.19;5044190;28;20025;-73
2021/03/19 00:43:33;;;;;;;43.85;22.48;;;;;;;4.93;55.87;99674.94;5062344;28;20032;-67
2021/03/19 00:45:59;;;;;;;51.08;24.52;;;;;;;4.92;56.31;99682.94;5058400;28;20021;-73
2021/03/19 00:48:24;;;;;;;52.00;25.63;;;;;;;4.92;56.54;99683.78;5044642;28;20020;-73
2021/03/19 00:50:52;;;;;;;49.15;22.33;;;;;;;4.50;56.95;99682.91;5046450;28;20226;-67
2021/03/19 00:53:17;;;;;;;41.47;21.93;;;;;;;4.21;57.81;99687.88;5045025;28;20360;-73
2021/03/19 00:55:43;;;;;;;43.90;22.73;;;;;;;3.85;58.57;99676.72;5045309;28;20041;-73
2021/03/19 00:58:08;;;;;;;45.03;22.13;;;;;;;4.04;59.24;99685.75;5045170;28;20412;-67
2021/03/19 01:00:36;;;;;;;45.57;21.80;;;;;;;4.26;58.48;99683.09;5041155;28;20030;-67
2021/03/19 01:03:03;;;;;;;45.83;22.10;;;;;;;4.29;58.81;99682.03;5046669;28;20029;-73
2021/03/19 01:05:35;;;;;;;54.23;24.57;;;;;;;4.29;58.94;99671.53;5041471;28;20041;-73
2021/03/19 01:08:03;;;;;;;46.50;23.20;;;;;;;4.34;58.64;99672.00;5045126;28;20040;-73
2021/03/19 01:10:33;;;;;;;45.83;22.40;;;;;;;4.44;58.09;99658.03;5041988;28;20235;-67
2021/03/19 01:12:59;;;;;;;45.63;22.20;;;;;;;4.86;57.29;99680.84;5044230;28;20029;-73
2021/03/19 01:15:26;;;;;;;48.17;22.95;;;;;;;5.02;56.40;99674.19;5044908;28;20033;-73
2021/03/19 01:17:52;;;;;;;46.75;22.75;;;;;;;4.91;56.74;99681.28;5046462;28;20071;-68
2021/03/19 01:20:19;;;;;;;46.43;22.97;;;;;;;4.76;57.02;99672.91;5043635;28;20025;-68
2021/03/19 01:22:44;;;;;;;42.75;21.25;;;;;;;4.90;56.92;99669.13;5044943;28;20036;-73
2021/03/19 01:25:14;;;;;;;46.13;21.93;;;;;;;5.14;56.23;99660.03;5045133;28;20326;-73
2021/03/19 01:27:40;;;;;;;42.53;21.13;;;;;;;5.20;56.27;99663.97;5051631;28;20469;-67
2021/03/19 01:30:10;;;;;;;40.53;22.20;;;;;;;5.26;55.33;99645.06;5043111;28;20045;-65
2021/03/19 01:32:37;;;;;;;45.88;23.25;;;;;;;5.36;55.60;99663.50;5057238;28;20068;-65
2021/03/19 01:35:05;;;;;;;45.40;22.38;;;;;;;5.44;55.30;99658.41;5052748;28;20035;-71
2021/03/19 01:37:31;;;;;;;45.75;22.63;;;;;;;5.35;55.08;99652.16;5044460;28;20064;-73
2021/03/19 01:39:56;;;;;;;45.00;22.67;;;;;;;5.31;55.47;99657.81;5042232;28;20049;-67
2021/03/19 01:42:22;;;;;;;49.58;24.17;;;;;;;5.13;56.31;99654.91;5044999;28;20052;-68
2021/03/19 01:44:50;;;;;;;52.55;26.00;;;;;;;5.34;56.10;99653.13;5059866;28;20043;-67
2021/03/19 01:47:53;;;;;;;43.60;24.02;;;;;;;5.53;55.14;99654.16;5062024;28;20222;-65
2021/03/19 01:50:56;;;;;;;43.20;21.60;;;;;;;5.54;55.08;99651.41;5061403;28;20099;-71
2021/03/19 01:53:58;;;;;;;46.28;21.65;;;;;;;5.65;54.98;99651.31;5051123;28;20052;-65
2021/03/19 01:57:01;;;;;;;42.55;21.35;;;;;;;5.75;55.61;99644.28;5042094;28;20052;-71
2021/03/19 02:00:04;;;;;;;46.53;23.10;;;;;;;5.56;55.94;99657.38;5055517;28;20060;-73
2021/03/19 02:03:06;;;;;;;46.08;22.98;;;;;;;5.63;55.72;99655.03;5051728;28;20037;-67
2021/03/19 02:06:09;;;;;;;48.25;24.30;;;;;;;5.44;56.56;99659.25;5041499;28;20048;-66
2021/03/19 02:09:12;;;;;;;52.65;25.63;;;;;;;5.44;56.28;99658.41;5045331;28;20035;-65
2021/03/19 02:12:15;;;;;;;57.70;26.80;;;;;;;5.51;56.52;99649.03;5041627;28;20045;-71
2021/03/19 02:15:17;;;;;;;53.17;26.05;;;;;;;5.75;55.69;99646.91;5045317;28;20087;-65
2021/03/19 02:18:37;;;;;;;45.58;24.67;;;;;;;6.09;54.86;99649.25;5043338;28;20039;-65
2021/03/19 02:21:39;;;;;;;47.35;23.05;;;;;;;6.05;55.33;99651.31;5062435;28;20197;-72
2021/03/19 02:24:42;;;;;;;50.63;24.38;;;;;;;6.03;54.64;99650.63;5046503;28;20267;-71
2021/03/19 02:27:45;;;;;;;40.53;19.85;;;;;;;6.00;54.97;99648.25;5044623;28;20231;-65
2021/03/19 02:30:48;;;;;;;36.10;17.98;;;;;;;5.75;56.06;99651.34;5053047;28;20376;-67
2021/03/19 02:33:14;;;;;;;40.67;20.20;;;;;;;5.70;55.96;99658.78;5048062;28;20048;-65
2021/03/19 02:35:52;;;;;;;33.85;17.95;;;;;;;5.74;56.05;99663.66;5047996;28;20044;-73
2021/03/19 02:38:18;;;;;;;38.72;18.25;;;;;;;5.65;56.87;99668.88;5049802;28;20025;-72
2021/03/19 02:40:43;;;;;;;31.90;16.63;;;;;;;5.74;56.05;99674.16;5046553;28;20041;-67
2021/03/19 02:43:09;;;;;;;29.77;14.90;;;;;;;5.72;56.47;99668.19;5049655;28;20025;-65
2021/03/19 02:45:34;;;;;;;29.17;15.30;;;;;;;5.80;56.29;99669.34;5064080;28;20029;-65
2021/03/19 02:48:00;;;;;;;30.15;14.63;;;;;;;5.85;56.35;99665.34;5054137;28;20025;-65
2021/03/19 02:50:26;;;;;;;26.67;14.35;;;;;;;5.86;56.50;99667.00;5048156;28;20033;-71
2021/03/19 02:52:51;;;;;;;24.75;14.07;;;;;;;5.88;56.07;99665.06;5048052;28;20231;-67
2021/03/19 02:55:18;;;;;;;28.77;13.98;;;;;;;5.61;57.33;99660.41;5046354;28;20033;-67
2021/03/19 02:57:44;;;;;;;22.98;13.35;;;;;;;5.54;57.35;99671.59;5060683;28;20372;-73
2021/03/19 03:00:17;;;;;;;23.92;14.15;;;;;;;5.36;57.92;99663.50;5060739;28;20064;-67
2021/03/19 03:02:43;;;;;;;24.83;12.53;;;;;;;5.28;58.24;99666.75;5045104;28;20029;-72
2021/03/19 03:05:09;;;;;;;23.95;13.88;;;;;;;5.32;58.41;99676.03;5049349;28;20025;-73
2021/03/19 03:07:35;;;;;;;23.52;13.10;;;;;;;5.31;58.23;99666.50;5044485;28;20034;-74
2021/03/19 03:10:01;;;;;;;27.17;14.68;;;;;;;5.38;58.43;99664.19;5047070;28;20037;-67
2021/03/19 03:12:28;;;;;;;24.52;13.50;;;;;;;5.43;58.15;99668.09;5048439;28;20347;-74
2021/03/19 03:14:53;;;;;;;25.30;13.52;;;;;;;5.42;58.38;99660.34;5049030;28;20037;-67
2021/03/19 03:17:20;;;;;;;27.60;14.15;;;;;;;5.33;58.76;99666.38;5044998;28;20315;-67
2021/03/19 03:19:45;;;;;;;24.05;14.23;;;;;;;5.29;58.55;99655.31;5045620;28;20033;-67
2021/03/19 03:22:11;;;;;;;28.00;13.77;;;;;;;5.44;58.25;99656.63;5045135;28;20051;-73
2021/03/19 03:24:37;;;;;;;25.60;13.48;;;;;;;5.47;58.19;99655.53;5046788;28;20428;-68
2021/03/19 03:27:04;;;;;;;28.02;14.93;;;;;;;5.53;58.15;99664.66;5044518;28;20043;-73
2021/03/19 03:29:30;;;;;;;24.48;14.40;;;;;;;5.45;58.42;99663.53;5045429;28;20390;-67
2021/03/19 03:31:57;;;;;;;27.33;14.90;;;;;;;5.60;58.10;99666.63;5048280;28;20042;-67
2021/03/19 03:34:22;;;;;;;27.08;14.93;;;;;;;5.53;58.40;99665.50;5043805;28;20108;-68
2021/03/19 03:36:48;;;;;;;30.90;14.40;;;;;;;5.55;58.32;99660.94;5061182;28;20032;-66
2021/03/19 03:39:18;;;;;;;26.48;15.05;;;;;;;5.66;58.30;99657.41;5058518;28;20052;-71
2021/03/19 03:41:44;;;;;;;28.48;15.38;;;;;;;5.59;58.49;99666.78;5044184;28;20041;-73
2021/03/19 03:44:13;;;;;;;34.22;17.55;;;;;;;5.64;58.45;99664.56;5048658;28;20101;-73
2021/03/19 03:46:40;;;;;;;41.47;19.35;;;;;;;5.61;58.59;99663.03;5045490;28;20037;-67
2021/03/19 03:49:06;;;;;;;33.10;18.00;;;;;;;5.59;58.62;99670.22;5046964;28;20029;-67
2021/03/19 03:51:31;;;;;;;30.50;17.13;;;;;;;5.69;58.35;99663.22;5044621;28;20039;-67
2021/03/19 03:53:58;;;;;;;28.42;16.83;;;;;;;5.71;57.85;99661.28;5047595;28;20035;-67
2021/03/19 03:56:25;;;;;;;29.77;16.40;;;;;;;5.69;58.22;99662.38;5044050;28;20105;-73
2021/03/19 03:58:51;;;;;;;32.00;17.70;;;;;;;5.70;58.25;99653.53;5046074;28;20027;-67
2021/03/19 04:01:17;;;;;;;31.85;18.30;;;;;;;5.58;58.40;99655.44;5046055;28;20323;-67
2021/03/19 04:03:42;;;;;;;37.72;19.55;;;;;;;5.71;57.93;99653.41;5058255;28;20205;-67
2021/03/19 04:06:08;;;;;;;36.70;20.30;;;;;;;5.69;58.19;99652.72;5059842;28;20068;-73
2021/03/19 04:08:34;;;;;;;36.07;18.47;;;;;;;5.63;57.77;99645.34;5042720;28;20064;-74
2021/03/19 04:11:06;;;;;;;35.17;18.40;;;;;;;5.63;58.25;99660.28;5051446;28;20047;-73
2021/03/19 04:13:32;;;;;;;34.08;18.77;;;;;;;5.54;58.54;99663.72;5062467;28;20020;-73
2021/03/19 04:15:59;;;;;;;33.33;18.00;;;;;;;5.53;58.50;99668.13;5048433;28;20259;-74
2021/03/19 04:18:25;;;;;;;43.20;21.60;;;;;;;5.59;58.29;99653.63;5060861;28;20383;-72
2021/03/19 04:20:53;;;;;;;53.58;24.23;;;;;;;5.71;57.87;99653.41;5046238;28;20060;-65
2021/03/19 04:23:23;;;;;;;43.47;21.52;;;;;;;5.71;58.16;99657.81;5044377;28;20231;-71
2021/03/19 04:25:50;;;;;;;38.80;20.92;;;;;;;5.74;57.87;99663.66;5047514;28;20037;-65
2021/03/19 04:28:22;;;;;;;39.08;20.95;;;;;;;5.80;57.79;99658.81;5042852;28;20067;-65
2021/03/19 04:30:48;;;;;;;39.78;20.95;;;;;;;5.64;58.43;99668.03;5062663;28;20078;-71
2021/03/19 04:33:18;;;;;;;34.00;19.25;;;;;;;5.83;57.66;99674.31;5048808;28;20033;-66
2021/03/19 04:35:51;;;;;;;35.33;18.67;;;;;;;5.80;57.84;99671.97;5046863;28;20040;-67
2021/03/19 04:38:18;;;;;;;37.30;17.23;;;;;;;5.60;58.45;99679.78;5058580;28;20311;-72
2021/03/19 04:40:45;;;;;;;34.03;17.77;;;;;;;5.77;58.69;99670.44;5045836;28;20112;-71
2021/03/19 04:43:12;;;;;;;34.90;16.95;;;;;;;5.72;58.88;99668.19;5045128;28;20041;-65
2021/03/19 04:45:39;;;;;;;32.30;17.35;;;;;;;5.82;58.51;99675.28;5042897;28;20028;-65
2021/03/19 04:48:05;;;;;;;35.15;17.17;;;;;;;5.77;58.52;99668.63;5047455;28;20044;-65
2021/03/19 04:50:31;;;;;;;36.08;17.98;;;;;;;5.86;58.42;99677.50;5043383;28;20052;-65
2021/03/19 04:52:56;;;;;;;38.80;18.25;;;;;;;5.85;58.81;99677.66;5047142;28;20325;-65
2021/03/19 04:55:22;;;;;;;36.00;18.70;;;;;;;5.69;58.64;99672.88;5053886;28;20033;-65
2021/03/19 04:57:47;;;;;;;39.78;18.55;;;;;;;5.73;59.06;99683.00;5061504;28;20032;-71
2021/03/19 05:00:14;;;;;;;35.97;18.83;;;;;;;5.73;58.81;99680.38;5042161;28;20053;-65
2021/03/19 05:02:46;;;;;;;36.47;19.35;;;;;;;5.79;58.38;99679.00;5045354;28;20115;-71
2021/03/19 05:05:32;;;;;;;38.05;19.17;;;;;;;5.75;58.74;99688.97;5074593;28;20343;-70
2021/03/19 05:07:59;;;;;;;36.28;19.55;;;;;;;5.92;57.92;99682.28;5048839;28;20037;-65
2021/03/19 05:10:27;;;;;;;38.55;18.77;;;;;;;5.66;57.89;99688.91;5059824;28;20306;-65
2021/03/19 05:12:55;;;;;;;36.17;20.17;;;;;;;5.70;58.16;99687.69;5058686;28;20021;-71
2021/03/19 05:15:22;;;;;;;33.95;18.33;;;;;;;5.82;57.75;99691.06;5044351;28;20040;-71
2021/03/19 05:17:48;;;;;;;39.20;19.80;;;;;;;5.92;57.08;99684.06;5052798;28;20032;-71
2021/03/19 05:20:14;;;;;;;39.80;20.30;;;;;;;6.06;56.51;99686.31;5061108;28;20040;-71
2021/03/19 05:22:40;;;;;;;38.15;20.27;;;;;;;6.00;56.37;99692.09;5043777;28;20037;-65
2021/03/19 05:25:11;;;;;;;36.15;19.13;;;;;;;5.89;56.42;99697.44;5044891;28;20029;-65
2021/03/19 05:27:36;;;;;;;36.17;19.52;;;;;;;6.01;56.11;99701.66;5047598;28;20274;-71
2021/03/19 05:30:05;;;;;;;37.17;20.05;;;;;;;6.03;56.05;99702.34;5042630;28;20075;-71
2021/03/19 05:32:31;;;;;;;42.40;20.08;;;;;;;5.99;56.47;99704.41;5043863;28;20025;-67
2021/03/19 05:34:56;;;;;;;39.78;19.63;;;;;;;6.23;55.88;99705.84;5042371;28;20029;-65
2021/03/19 05:37:22;;;;;;;57.05;21.25;;;;;;;6.35;55.82;99712.69;5046398;28;20219;-71
2021/03/19 05:39:48;;;;;;;41.22;21.20;;;;;;;6.30;55.89;99715.72;5040971;28;20338;-65
2021/03/19 05:42:15;;;;;;;45.22;21.00;;;;;;;5.92;56.49;99720.84;5045172;28;20033;-66
2021/03/19 05:44:44;;;;;;;55.30;27.13;;;;;;;5.32;58.16;99738.22;5043957;28;20216;-72
2021/03/19 05:47:09;;;;;;;48.35;24.63;;;;;;;5.43;58.68;99743.41;5044714;28;20041;-72
2021/03/19 05:49:35;;;;;;;53.53;25.15;;;;;;;5.52;58.60;99737.38;5052578;28;20330;-71
2021/03/19 05:52:17;;;;;;;53.50;26.38;;;;;;;5.80;58.24;99741.09;5058975;28;20033;-67
2021/03/19 05:54:44;;;;;;;73.35;31.50;;;;;;;5.70;58.40;99735.81;5061162;28;20063;-66
2021/03/19 05:57:26;;;;;;;60.13;27.20;;;;;;;5.88;59.03;99737.81;5052690;28;20035;-65
2021/03/19 05:59:55;;;;;;;95.82;33.33;;;;;;;5.73;59.27;99739.97;5056491;28;20055;-65
2021/03/19 06:02:35;;;;;;;74.53;30.02;;;;;;;5.75;59.21;99735.41;5061422;28;20029;-71
2021/03/19 06:05:17;;;;;;;64.95;28.88;;;;;;;5.87;58.38;99736.16;5060027;28;20097;-65
2021/03/19 06:07:57;;;;;;;59.70;26.50;;;;;;;5.67;58.98;99733.44;5056018;28;20037;-65
2021/03/19 06:10:31;;;;;;;53.72;23.77;;;;;;;5.52;60.00;99745.25;5045727;28;20200;-65
2021/03/19 06:13:24;;;;;;;52.85;23.20;;;;;;;5.62;59.99;99738.25;5040626;28;20029;-65
2021/03/19 06:15:52;;;;;;;44.45;22.80;;;;;;;5.69;59.99;99747.28;5043469;28;21253;-71
2021/03/19 06:18:44;;;;;;;49.20;23.30;;;;;;;5.72;60.21;99749.66;5043759;28;20026;-65
2021/03/19 06:21:09;;;;;;;86.07;33.35;;;;;;;5.97;59.82;99755.47;5043816;28;20094;-71
2021/03/19 06:23:36;;;;;;;60.97;41.78;;;;;;;5.89;60.07;99758.75;5044472;28;20062;-68
2021/03/19 06:26:23;;;;;;;57.10;25.65;;;;;;;5.78;61.09;99754.38;5042561;28;20029;-72
2021/03/19 06:29:03;;;;;;;105.00;34.83;;;;;;;5.99;60.24;99756.16;5043354;28;20345;-72
2021/03/19 06:31:32;;;;;;;42.47;21.27;;;;;;;6.33;59.89;99752.28;5042679;28;20083;-71
2021/03/19 06:34:11;;;;;;;50.65;24.05;;;;;;;6.40;59.17;99756.03;5076326;28;20010;-71
2021/03/19 06:36:56;;;;;;;50.42;24.88;;;;;;;6.36;59.30;99753.81;5041679;28;20268;-65
2021/03/19 06:39:30;;;;;;;41.58;21.45;;;;;;;6.57;58.58;99759.81;5060668;28;20029;-71
2021/03/19 06:42:19;;;;;;;45.40;20.83;;;;;;;6.74;57.86;99758.31;5057435;28;20041;-65
2021/03/19 06:45:12;;;;;;;53.05;28.85;;;;;;;6.63;58.14;99763.69;5053946;28;20311;-65
2021/03/19 06:47:47;;;;;;;77.88;34.60;;;;;;;6.73;57.65;99765.38;5060663;28;20253;-65
2021/03/19 06:50:23;;;;;;;57.90;24.30;;;;;;;6.78;56.65;99764.13;5058517;28;20025;-65
2021/03/19 06:53:11;;;;;;;40.17;20.98;;;;;;;6.82;55.68;99771.59;5056186;28;20024;-65
2021/03/19 06:55:38;;;;;;;49.97;23.67;;;;;;;6.98;55.31;99776.31;5052896;28;20025;-66
2021/03/19 06:58:03;;;;;;;31.90;17.95;;;;;;;7.03;54.59;99782.84;5058610;28;20033;-71
2021/03/19 07:00:45;;;;;;;30.35;15.68;;;;;;;7.00;54.13;99792.81;5058928;28;20041;-71
2021/03/19 07:03:39;;;;;;;68.22;29.05;;;;;;;7.02;55.33;99791.69;5055046;28;20028;-65
2021/03/19 07:06:29;;;;;;;43.00;21.55;;;;;;;7.19;54.46;99797.25;5054337;28;20063;-71
2021/03/19 07:09:16;;;;;;;41.38;21.83;;;;;;;7.35;54.29;99806.28;5061806;28;20063;-71
2021/03/19 07:12:14;;;;;;;37.80;19.35;;;;;;;7.48;54.17;99813.06;5063248;28;20041;-65
2021/03/19 07:14:57;;;;;;;31.23;16.65;;;;;;;7.34;56.41;99812.50;5061683;28;20223;-72
2021/03/19 07:17:27;;;;;;;30.55;16.35;;;;;;;7.33;55.15;99815.28;5063522;28;20261;-72
2021/03/19 07:20:14;;;;;;;30.13;16.15;;;;;;;7.44;55.87;99823.03;5063537;28;20049;-65
2021/03/19 07:22:51;;;;;;;26.50;15.32;;;;;;;7.49;55.83;99831.38;5062927;28;20063;-70
2021/03/19 07:25:35;;;;;;;56.90;23.48;;;;;;;7.56;57.07;99834.25;5061232;28;20078;-71
2021/03/19 07:28:05;;;;;;;31.50;17.50;;;;;;;7.51;56.21;99821.50;5064391;28;20025;-65
2021/03/19 07:30:40;;;;;;;41.80;21.77;;;;;;;7.40;57.51;99829.56;5061730;28;20036;-71
2021/03/19 07:33:34;;;;;;;35.95;19.75;;;;;;;7.58;55.85;99830.53;5058841;28;20347;-65
2021/03/19 07:36:17;;;;;;;37.65;20.40;;;;;;;7.35;56.55;99834.41;5060021;28;20305;-71
2021/03/19 07:39:09;;;;;;;35.15;18.92;;;;;;;6.94;58.21;99824.94;5060057;28;20037;-65
2021/03/19 07:41:58;;;;;;;35.70;18.70;;;;;;;6.49;60.82;99833.31;5063018;28;20102;-67
2021/03/19 07:44:35;;;;;;;35.08;18.95;;;;;;;6.23;61.68;99832.91;5062757;28;20308;-67
2021/03/19 07:47:20;;;;;;;35.10;19.63;;;;;;;6.06;62.16;99844.03;5062368;28;20096;-73
2021/03/19 07:50:18;;;;;;;38.92;20.52;;;;;;;5.54;65.20;99840.50;5056593;28;20045;-73
2021/03/19 07:53:12;;;;;;;35.43;20.57;;;;;;;5.49;66.38;99840.06;5057214;28;20033;-67
2021/03/19 07:56:02;;;;;;;39.30;21.15;;;;;;;5.76;66.04;99842.19;5062005;28;20033;-74
2021/03/19 07:58:58;;;;;;;41.67;20.75;;;;;;;5.77;66.42;99851.72;5051279;28;20021;-73
2021/03/19 08:01:39;;;;;;;41.05;20.95;;;;;;;5.87;67.26;99859.66;5051445;28;20075;-71
2021/03/19 08:04:33;;;;;;;38.92;19.35;;;;;;;6.07;66.01;99857.03;5054697;28;20025;-65
2021/03/19 08:07:16;;;;;;;35.10;19.50;;;;;;;5.98;65.82;99868.34;5053024;28;20044;-71
2021/03/19 08:10:00;;;;;;;39.35;19.60;;;;;;;5.76;67.72;99869.28;5052779;28;20323;-68
2021/03/19 08:12:34;;;;;;;43.55;21.23;;;;;;;5.76;67.79;99876.34;5050988;28;20025;-67
2021/03/19 08:15:14;;;;;;;33.38;16.33;;;;;;;5.60;67.84;99868.91;5052972;28;20091;-72
2021/03/19 08:17:55;;;;;;;40.57;22.03;;;;;;;5.31;70.48;99866.03;5051099;28;20052;-67
2021/03/19 08:20:46;;;;;;;44.00;21.47;;;;;;;5.19;71.20;99853.06;5051543;28;20051;-73
2021/03/19 08:23:43;;;;;;;40.33;21.40;;;;;;;5.41;70.80;99851.19;5054889;28;20044;-72
2021/03/19 08:26:18;;;;;;;36.47;20.40;;;;;;;5.54;72.09;99853.66;5050936;28;20055;-73
2021/03/19 08:29:12;;;;;;;40.65;21.92;;;;;;;5.53;72.11;99853.78;5053361;28;20029;-67
2021/03/19 08:31:46;;;;;;;42.45;22.05;;;;;;;5.49;71.91;99853.19;5061835;28;20051;-73
2021/03/19 08:34:30;;;;;;;40.93;21.53;;;;;;;5.73;71.07;99852.94;5055172;28;20029;-65
2021/03/19 08:36:55;;;;;;;42.50;23.17;;;;;;;6.04;69.84;99848.59;5058422;28;20048;-72
2021/03/19 08:39:44;;;;;;;44.67;23.58;;;;;;;6.00;70.31;99850.66;5062170;28;20208;-73
2021/03/19 08:42:44;;;;;;;46.30;23.53;;;;;;;5.78;71.02;99846.34;5060476;28;20060;-67
2021/03/19 08:45:25;;;;;;;46.67;24.60;;;;;;;5.80;70.56;99848.84;5062201;28;20045;-65
2021/03/19 08:47:54;;;;;;;51.72;26.08;;;;;;;5.97;70.26;99837.75;5061057;28;20106;-71
2021/03/19 08:50:36;;;;;;;45.35;23.65;;;;;;;6.10;71.47;99848.06;5060859;28;20029;-71
2021/03/19 08:53:18;;;;;;;51.03;25.23;;;;;;;5.98;70.35;99834.16;5060330;28;20029;-67
2021/03/19 08:55:50;;;;;;;47.75;24.67;;;;;;;6.08;70.31;99836.84;5073607;28;20052;-72
2021/03/19 08:58:28;;;;;;;52.45;25.65;;;;;;;6.20;69.51;99837.59;5060003;28;20327;-65
2021/03/19 09:01:05;;;;;;;45.13;24.80;;;;;;;6.16;68.83;99833.56;5062416;28;20025;-71
2021/03/19 09:03:51;;;;;;;48.85;24.23;;;;;;;6.47;68.41;99837.03;5061724;28;20031;-66
2021/03/19 09:06:26;;;;;;;47.55;24.45;;;;;;;6.71;67.20;99832.25;5060897;28;20100;-72
2021/03/19 09:08:51;;;;;;;48.97;24.73;;;;;;;6.64;67.33;99839.03;5060264;28;20044;-71
2021/03/19 09:11:24;;;;;;;50.92;26.77;;;;;;;6.53;68.32;99839.97;5061180;28;20031;-71
2021/03/19 09:14:02;;;;;;;54.83;28.27;;;;;;;6.35;70.05;99828.41;5061309;28;20068;-70
2021/03/19 09:16:43;;;;;;;50.88;26.35;;;;;;;6.56;69.74;99831.81;5061115;28;20315;-65
2021/03/19 09:19:40;;;;;;;55.55;26.65;;;;;;;6.22;72.19;99831.25;5060529;28;20048;-65
2021/03/19 09:22:24;;;;;;;56.45;27.20;;;;;;;5.99;72.22;99827.94;5060572;28;20028;-67
2021/03/19 09:25:08;;;;;;;56.45;27.85;;;;;;;6.06;72.13;99836.97;5061123;28;20029;-67
2021/03/19 09:27:36;;;;;;;59.25;27.70;;;;;;;6.21;72.87;99831.38;5060482;28;20032;-73
2021/03/19 09:30:20;;;;;;;57.55;29.35;;;;;;;6.21;74.07;99831.38;5061320;28;20028;-64
2021/03/19 09:32:48;;;;;;;55.30;26.67;;;;;;;6.24;72.59;99823.22;5060329;28;20052;-72
2021/03/19 09:35:35;;;;;;;55.90;27.80;;;;;;;6.33;72.75;99827.72;5061145;28;20032;-71
2021/03/19 09:38:02;;;;;;;55.65;29.63;;;;;;;6.26;72.63;99827.41;5058888;28;20074;-71
2021/03/19 09:40:51;;;;;;;57.28;28.85;;;;;;;6.19;73.54;99830.66;5061120;28;20037;-72
2021/03/19 09:43:37;;;;;;;51.97;27.92;;;;;;;6.08;73.56;99829.78;5058218;28;20078;-65
2021/03/19 09:46:17;;;;;;;55.10;27.98;;;;;;;6.30;72.26;99831.44;5060561;28;20017;-65
2021/03/19 09:49:23;;;;;;;51.60;26.02;;;;;;;6.24;73.41;99831.09;5061027;28;20029;-67
2021/03/19 09:51:49;;;;;;;49.15;24.92;;;;;;;6.24;73.15;99831.09;5058630;28;20378;-66
2021/03/19 09:54:28;;;;;;;45.35;23.95;;;;;;;6.45;71.40;99834.53;5059691;28;20017;-71
2021/03/19 09:57:02;;;;;;;42.53;22.70;;;;;;;6.53;71.21;99842.59;5050550;28;20087;-71
2021/03/19 09:59:31;;;;;;;47.67;24.20;;;;;;;6.35;73.92;99839.75;5049758;28;20037;-71
2021/03/19 10:01:57;;;;;;;41.47;22.52;;;;;;;6.40;72.40;99842.00;5051908;28;20096;-66
2021/03/19 10:04:33;;;;;;;42.40;23.08;;;;;;;6.23;72.54;99839.97;5058855;28;20017;-66
2021/03/19 10:07:04;;;;;;;42.03;21.92;;;;;;;6.20;74.63;99838.44;5091195;28;20270;-67
2021/03/19 10:09:53;;;;;;;42.22;21.98;;;;;;;6.32;72.25;99837.41;5058361;28;20060;-65
2021/03/19 10:12:28;;;;;;;41.75;22.38;;;;;;;6.52;72.04;99845.34;5058742;28;20166;-65
2021/03/19 10:14:56;;;;;;;37.72;20.73;;;;;;;6.51;71.97;99841.06;5059381;28;20044;-65
2021/03/19 10:17:28;;;;;;;38.22;20.73;;;;;;;6.67;73.01;99839.59;5060405;28;20029;-66
2021/03/19 10:20:13;;;;;;;43.13;22.55;;;;;;;6.82;73.95;99839.19;5059366;28;20032;-72
2021/03/19 10:22:42;;;;;;;38.80;21.25;;;;;;;6.96;72.09;99839.63;5058214;28;20220;-71
2021/03/19 10:25:28;;;;;;;42.10;20.58;;;;;;;6.65;72.29;99841.53;5060250;28;20039;-71
2021/03/19 10:27:57;;;;;;;38.58;21.00;;;;;;;6.71;73.99;99846.25;5059834;28;20052;-65
2021/03/19 10:30:29;;;;;;;38.70;21.35;;;;;;;6.52;74.17;99842.72;5060191;28;20028;-71
2021/03/19 10:33:01;;;;;;;35.85;20.58;;;;;;;6.48;73.79;99846.59;5059855;28;20025;-65
2021/03/19 10:35:38;;;;;;;40.55;22.48;;;;;;;6.35;75.13;99844.19;5059584;28;20115;-71
2021/03/19 10:38:28;;;;;;;40.30;21.88;;;;;;;6.46;71.39;99844.09;5059237;28;20058;-65
2021/03/19 10:41:01;;;;;;;43.35;21.60;;;;;;;6.65;70.61;99843.31;5060890;28;20044;-65
2021/03/19 10:43:42;;;;;;;42.17;20.37;;;;;;;6.56;71.01;99844.97;5058616;28;20032;-72
2021/03/19 10:46:24;;;;;;;41.78;21.05;;;;;;;6.58;72.84;99836.94;5064462;28;20102;-71
2021/03/19 10:49:02;;;;;;;40.22;22.05;;;;;;;6.63;72.83;99835.56;5063258;28;20074;-71
2021/03/19 10:51:48;;;;;;;44.45;21.90;;;;;;;6.55;72.87;99843.28;5062765;28;20044;-65
2021/03/19 10:54:14;;;;;;;47.53;23.27;;;;;;;6.48;75.32;99843.97;5063234;28;20029;-72
2021/03/19 10:56:52;;;;;;;50.17;25.92;;;;;;;6.40;76.46;99832.31;5064620;28;20106;-71
2021/03/19 10:59:20;;;;;;;46.58;25.30;;;;;;;6.31;75.86;99835.75;5061888;28;20065;-71
2021/03/19 11:01:50;;;;;;;50.90;25.85;;;;;;;6.45;75.90;99837.16;5064645;28;20231;-66
2021/03/19 11:04:50;;;;;;;48.42;24.30;;;;;;;6.37;74.29;99834.38;5063141;28;20059;-65
2021/03/19 11:07:25;;;;;;;44.70;23.38;;;;;;;6.50;74.24;99834.97;5061071;28;20111;-65
2021/03/19 11:10:09;;;;;;;38.53;21.33;;;;;;;6.53;72.20;99826.81;5062360;28;20056;-71
2021/03/19 11:12:53;;;;;;;41.28;21.70;;;;;;;6.81;71.35;99829.63;5062356;28;20098;-71
2021/03/19 11:15:28;;;;;;;40.90;22.30;;;;;;;7.10;71.31;99819.97;5062300;28;20036;-71
2021/03/19 11:18:19;;;;;;;42.35;21.67;;;;;;;6.84;71.96;99821.47;5060983;28;20216;-72
2021/03/19 11:20:48;;;;;;;40.47;22.00;;;;;;;6.66;71.56;99814.25;5062572;28;20139;-72
2021/03/19 11:23:25;;;;;;;44.67;21.60;;;;;;;6.73;74.52;99818.00;5062342;28;20055;-65
2021/03/19 11:25:53;;;;;;;40.28;21.88;;;;;;;6.83;72.09;99815.38;5065974;28;20349;-65
2021/03/19 11:28:30;;;;;;;41.05;22.17;;;;;;;6.96;71.69;99810.69;5062757;28;20033;-65
2021/03/19 11:31:15;;;;;;;40.67;21.92;;;;;;;6.87;73.07;99797.50;5063617;28;20037;-65
2021/03/19 11:34:00;;;;;;;43.25;23.13;;;;;;;6.73;71.74;99802.19;5062807;28;20060;-71
2021/03/19 11:36:29;;;;;;;42.05;21.30;;;;;;;6.84;71.84;99803.06;5063611;28;20037;-65
2021/03/19 11:39:11;;;;;;;43.75;22.95;;;;;;;7.09;71.35;99799.88;5061656;28;20025;-65
2021/03/19 11:41:41;;;;;;;38.70;20.70;;;;;;;6.85;69.61;99792.38;5063823;28;20089;-65
2021/03/19 11:44:07;;;;;;;35.47;19.63;;;;;;;7.15;68.63;99780.06;5061896;28;20075;-65
2021/03/19 11:46:33;;;;;;;40.75;22.65;;;;;;;7.63;70.18;99791.41;5063982;28;20059;-66
2021/03/19 11:48:59;;;;;;;38.67;21.20;;;;;;;7.87;69.49;99780.38;5062145;28;20025;-66
2021/03/19 11:51:31;;;;;;;38.85;21.75;;;;;;;7.71;69.66;99785.41;5062770;28;20311;-72
2021/03/19 11:54:01;;;;;;;34.63;19.90;;;;;;;7.47;67.91;99771.88;5061748;28;20226;-66
2021/03/19 11:56:30;;;;;;;33.88;19.95;;;;;;;7.76;68.12;99777.06;5063183;28;20056;-65
2021/03/19 11:58:56;;;;;;;29.60;16.90;;;;;;;7.95;66.36;99774.38;5062197;28;20211;-67
2021/03/19 12:01:21;;;;;;;30.98;17.35;;;;;;;7.91;65.34;99767.72;5062940;28;20024;-71